Time;durP1;ratioP1;P1;durP2;ratioP2;P2;SDS_P1;SDS_P2;PMS_P1;PMS_P2;Temp;Humidity;BMP_temperature;BMP_pressure;BME280_temperature;BME280_humidity;BME280_pressure;Samples;Min_cycle;Max_cycle;Signal;HPM_P1;HPM_P2
2022/10/29 00:01:56;;;;;;;7.07;3.47;;;13.50;72.90;;;;;;5003371;28;20030;-61
2022/10/29 00:04:21;;;;;;;7.75;3.70;;;13.50;72.90;;;;;;5003913;28;20118;-62
2022/10/29 00:06:48;;;;;;;10.48;3.38;;;13.50;72.90;;;;;;5019254;28;20038;-62
2022/10/29 00:09:14;;;;;;;9.18;3.67;;;13.50;72.90;;;;;;5014065;28;20057;-63
2022/10/29 00:11:40;;;;;;;8.75;3.95;;;13.40;73.00;;;;;;5001534;28;20041;-62
2022/10/29 00:14:05;;;;;;;5.40;3.60;;;13.40;73.10;;;;;;5003317;28;20073;-62
2022/10/29 00:16:37;;;;;;;14.85;3.72;;;13.40;73.10;;;;;;5003674;28;20037;-62
2022/10/29 00:19:03;;;;;;;11.00;3.80;;;13.40;73.20;;;;;;5003814;28;20042;-61
2022/10/29 00:21:29;;;;;;;9.07;3.95;;;13.40;73.10;;;;;;5009348;28;20069;-62
2022/10/29 00:23:56;;;;;;;9.18;3.63;;;13.40;73.20;;;;;;5009501;28;20034;-63
2022/10/29 00:26:23;;;;;;;8.27;3.50;;;13.40;73.30;;;;;;5014832;28;20038;-62
2022/10/29 00:28:52;;;;;;;10.20;3.70;;;13.40;74.10;;;;;;5005511;28;20037;-62
2022/10/29 00:31:19;;;;;;;13.07;4.10;;;13.40;73.50;;;;;;5001015;28;20026;-62
2022/10/29 00:33:45;;;;;;;13.25;4.55;;;13.40;73.50;;;;;;5006778;28;21250;-62
2022/10/29 00:36:14;;;;;;;10.48;3.75;;;13.30;73.40;;;;;;5001004;28;20038;-62
2022/10/29 00:38:40;;;;;;;6.85;3.58;;;13.30;73.30;;;;;;5003945;28;20065;-62
2022/10/29 00:41:07;;;;;;;8.23;3.90;;;13.40;73.30;;;;;;5008843;28;20060;-63
2022/10/29 00:43:35;;;;;;;10.15;3.58;;;13.30;73.30;;;;;;5006143;28;20116;-62
2022/10/29 00:46:08;;;;;;;6.50;3.65;;;13.30;73.40;;;;;;5000302;28;20103;-61
2022/10/29 00:48:38;;;;;;;9.73;3.75;;;13.30;73.40;;;;;;5006732;28;20022;-61
2022/10/29 00:51:08;;;;;;;6.30;3.53;;;13.30;73.20;;;;;;5001164;28;20030;-63
2022/10/29 00:53:38;;;;;;;8.65;4.13;;;13.20;73.40;;;;;;5001686;28;20046;-62
2022/10/29 00:56:04;;;;;;;5.90;3.35;;;13.20;73.40;;;;;;4997688;28;20102;-62
2022/10/29 00:58:30;;;;;;;11.90;3.70;;;13.20;73.30;;;;;;5010850;28;20073;-63
2022/10/29 01:00:58;;;;;;;9.43;3.63;;;13.20;73.30;;;;;;5002810;28;20034;-61
2022/10/29 01:03:24;;;;;;;9.15;3.85;;;13.20;73.10;;;;;;5005226;28;20031;-62
2022/10/29 01:05:51;;;;;;;9.82;3.60;;;13.20;73.20;;;;;;5013168;28;20042;-62
2022/10/29 01:08:18;;;;;;;14.52;4.25;;;13.20;73.50;;;;;;5001219;28;20050;-62
2022/10/29 01:11:03;;;;;;;14.05;4.60;;;13.10;73.60;;;;;;5009127;28;20026;-62
2022/10/29 01:13:59;;;;;;;8.75;3.58;;;13.10;75.20;;;;;;5002746;28;20061;-62
2022/10/29 01:16:30;;;;;;;12.02;4.53;;;13.10;75.30;;;;;;5002509;28;20029;-62
2022/10/29 01:19:18;;;;;;;7.85;3.28;;;13.10;74.50;;;;;;5009750;28;20120;-62
2022/10/29 01:21:48;;;;;;;7.55;3.60;;;13.10;75.80;;;;;;4999532;28;20100;-64
2022/10/29 01:24:19;;;;;;;7.97;3.40;;;13.10;75.00;;;;;;4998758;28;20026;-62
2022/10/29 01:27:05;;;;;;;12.93;3.60;;;13.10;75.40;;;;;;4996261;28;20038;-61
2022/10/29 01:29:33;;;;;;;8.10;3.83;;;13.10;75.90;;;;;;4999718;28;20023;-61
2022/10/29 01:32:12;;;;;;;7.03;3.40;;;13.10;75.10;;;;;;5010417;28;20041;-62
2022/10/29 01:35:15;;;;;;;12.70;4.65;;;13.10;75.10;;;;;;5001917;28;20056;-62
2022/10/29 01:38:04;;;;;;;9.13;3.50;;;13.10;75.60;;;;;;4944796;29;20047;-62
2022/10/29 01:41:05;;;;;;;8.15;3.78;;;13.10;74.90;;;;;;4942176;29;20043;-61
2022/10/29 01:43:36;;;;;;;6.75;3.10;;;13.10;75.00;;;;;;4900983;29;20582;-62
2022/10/29 01:46:18;;;;;;;8.95;3.03;;;13.00;74.40;;;;;;4904474;29;20057;-62
2022/10/29 01:48:49;;;;;;;6.28;3.22;;;13.10;74.70;;;;;;4902155;29;20041;-62
2022/10/29 01:51:27;;;;;;;12.20;3.45;;;13.00;74.30;;;;;;4824674;29;20032;-62
2022/10/29 01:53:53;;;;;;;9.60;3.05;;;13.00;74.50;;;;;;4888682;29;20137;-63
2022/10/29 01:56:19;;;;;;;5.95;3.22;;;13.00;74.30;;;;;;4904908;29;20028;-61
2022/10/29 01:58:51;;;;;;;5.55;2.75;;;12.90;74.20;;;;;;4903370;29;20040;-62
2022/10/29 02:01:31;;;;;;;11.13;3.30;;;12.90;74.20;;;;;;4909372;29;20104;-62
2022/10/29 02:04:03;;;;;;;10.88;3.60;;;12.90;74.10;;;;;;4903648;29;20056;-61
2022/10/29 02:06:34;;;;;;;7.35;3.33;;;12.90;74.10;;;;;;4902187;29;20045;-61
2022/10/29 02:09:05;;;;;;;5.40;2.92;;;12.80;74.10;;;;;;4903919;29;20056;-62
2022/10/29 02:11:51;;;;;;;9.60;3.38;;;12.80;74.10;;;;;;4903032;29;20037;-62
2022/10/29 02:14:31;;;;;;;11.90;3.42;;;12.80;74.00;;;;;;4902480;29;20423;-62
2022/10/29 02:17:00;;;;;;;7.68;3.25;;;12.80;74.10;;;;;;4926649;29;20094;-61
2022/10/29 02:19:30;;;;;;;8.52;3.00;;;12.80;74.70;;;;;;4934989;28;20047;-62
2022/10/29 02:21:56;;;;;;;10.45;3.10;;;12.70;74.10;;;;;;5006646;28;20026;-62
2022/10/29 02:24:23;;;;;;;8.40;3.78;;;12.70;74.10;;;;;;5003812;28;20058;-63
2022/10/29 02:26:49;;;;;;;9.23;3.45;;;12.70;74.30;;;;;;5006369;28;20614;-62
2022/10/29 02:29:15;;;;;;;6.10;3.05;;;12.70;74.50;;;;;;5004355;28;20061;-62
2022/10/29 02:31:40;;;;;;;9.75;3.15;;;12.70;74.70;;;;;;5003948;28;20030;-62
2022/10/29 02:34:06;;;;;;;8.23;2.83;;;12.70;74.80;;;;;;5007384;28;20456;-62
2022/10/29 02:36:32;;;;;;;10.32;3.25;;;12.70;75.50;;;;;;5004559;28;20057;-61
2022/10/29 02:38:57;;;;;;;8.38;3.00;;;12.70;74.80;;;;;;5013626;28;20034;-62
2022/10/29 02:41:23;;;;;;;10.23;3.40;;;12.70;74.90;;;;;;5011210;28;20102;-62
2022/10/29 02:43:49;;;;;;;9.82;3.13;;;12.70;74.90;;;;;;5005576;28;20030;-62
2022/10/29 02:46:17;;;;;;;10.07;3.20;;;12.70;75.00;;;;;;5005543;28;20057;-61
2022/10/29 02:48:43;;;;;;;19.50;3.83;;;12.80;75.10;;;;;;5003927;28;20081;-63
2022/10/29 02:51:09;;;;;;;12.80;3.22;;;12.80;75.00;;;;;;5003820;28;20061;-62
2022/10/29 02:53:35;;;;;;;5.55;3.10;;;12.80;75.00;;;;;;5004407;28;20039;-61
2022/10/29 02:56:01;;;;;;;6.55;3.08;;;12.80;75.10;;;;;;5010119;28;20027;-62
2022/10/29 02:58:27;;;;;;;8.77;3.13;;;12.80;75.10;;;;;;5008229;28;20034;-62
2022/10/29 03:00:54;;;;;;;9.60;3.35;;;12.80;75.00;;;;;;5008552;28;20110;-64
2022/10/29 03:03:20;;;;;;;17.67;3.40;;;12.80;75.00;;;;;;5004542;28;20035;-62
2022/10/29 03:05:46;;;;;;;10.68;2.90;;;12.80;74.90;;;;;;5003968;28;20034;-62
2022/10/29 03:08:12;;;;;;;7.50;2.80;;;12.80;74.90;;;;;;5012570;28;20077;-62
2022/10/29 03:10:38;;;;;;;7.97;3.75;;;12.80;74.90;;;;;;5004444;28;20027;-61
2022/10/29 03:13:03;;;;;;;9.52;3.03;;;12.90;74.90;;;;;;5007688;28;20042;-62
2022/10/29 03:15:29;;;;;;;8.80;2.97;;;12.90;74.90;;;;;;5015022;28;20049;-62
2022/10/29 03:17:54;;;;;;;6.88;2.92;;;12.90;74.90;;;;;;5008778;28;20280;-62
2022/10/29 03:20:20;;;;;;;5.93;3.17;;;12.90;74.80;;;;;;5001244;28;20072;-61
2022/10/29 03:22:46;;;;;;;7.53;3.10;;;12.90;74.60;;;;;;5005350;28;20026;-62
2022/10/29 03:25:12;;;;;;;7.25;2.80;;;12.90;74.60;;;;;;5003509;28;20034;-63
2022/10/29 03:27:42;;;;;;;6.40;3.00;;;12.90;74.60;;;;;;5016761;28;20025;-63
2022/10/29 03:30:09;;;;;;;5.82;2.70;;;12.80;74.50;;;;;;5010526;28;20029;-63
2022/10/29 03:32:39;;;;;;;4.78;2.72;;;12.80;74.30;;;;;;5012200;28;20053;-62
2022/10/29 03:35:06;;;;;;;10.20;2.85;;;12.80;74.30;;;;;;5011233;28;20266;-63
2022/10/29 03:37:32;;;;;;;11.50;3.13;;;12.80;74.20;;;;;;5010519;28;20120;-62
2022/10/29 03:39:57;;;;;;;4.82;2.67;;;12.80;74.20;;;;;;5003988;28;20053;-62
2022/10/29 03:42:23;;;;;;;7.03;2.83;;;12.80;74.20;;;;;;5004863;28;20030;-62
2022/10/29 03:44:49;;;;;;;7.55;3.10;;;12.80;74.30;;;;;;5003740;28;20045;-63
2022/10/29 03:47:14;;;;;;;7.22;3.05;;;12.80;74.30;;;;;;5008906;28;20081;-61
2022/10/29 03:49:40;;;;;;;10.82;3.22;;;12.80;74.40;;;;;;5001837;28;20037;-62
2022/10/29 03:52:06;;;;;;;10.13;3.15;;;12.80;74.40;;;;;;5013847;28;20030;-63
2022/10/29 03:54:31;;;;;;;6.35;3.03;;;12.70;74.40;;;;;;5005305;28;20046;-62
2022/10/29 03:56:57;;;;;;;6.50;3.25;;;12.70;74.40;;;;;;5004557;28;20113;-62
2022/10/29 03:59:22;;;;;;;7.38;3.10;;;12.70;74.50;;;;;;5004947;28;20026;-63
2022/10/29 04:01:48;;;;;;;7.72;3.08;;;12.80;74.70;;;;;;5002962;28;20080;-63
2022/10/29 04:04:14;;;;;;;8.48;3.30;;;12.80;74.80;;;;;;5003526;28;20026;-64
2022/10/29 04:06:39;;;;;;;11.07;3.17;;;12.80;74.80;;;;;;5002233;28;20057;-62
2022/10/29 04:09:05;;;;;;;8.20;3.17;;;12.80;74.90;;;;;;5005441;28;20026;-63
2022/10/29 04:11:31;;;;;;;6.40;3.08;;;12.80;75.00;;;;;;5006674;28;20026;-64
2022/10/29 04:13:57;;;;;;;6.15;3.25;;;12.80;75.00;;;;;;4999558;28;20022;-62
2022/10/29 04:16:22;;;;;;;10.10;3.60;;;12.80;75.00;;;;;;5003651;28;20081;-64
2022/10/29 04:18:49;;;;;;;7.57;3.20;;;12.80;75.00;;;;;;5004314;28;20022;-62
2022/10/29 04:21:15;;;;;;;12.88;3.05;;;12.80;74.90;;;;;;5001146;28;20030;-62
2022/10/29 04:23:41;;;;;;;5.32;3.03;;;12.80;74.90;;;;;;5000352;28;20026;-62
2022/10/29 04:26:07;;;;;;;6.55;3.10;;;12.90;75.00;;;;;;5001467;28;20065;-62
2022/10/29 04:28:32;;;;;;;8.18;3.03;;;12.90;75.10;;;;;;4994317;28;20030;-62
2022/10/29 04:31:06;;;;;;;7.35;3.38;;;12.90;75.20;;;;;;5003552;28;20076;-63
2022/10/29 04:33:32;;;;;;;7.82;3.15;;;12.90;75.40;;;;;;5000406;28;20026;-62
2022/10/29 04:35:58;;;;;;;11.95;3.30;;;12.90;75.20;;;;;;5002501;28;20640;-63
2022/10/29 04:38:23;;;;;;;7.07;3.45;;;12.90;75.20;;;;;;5003822;28;20031;-61
2022/10/29 04:40:49;;;;;;;8.25;3.22;;;12.90;75.20;;;;;;4998797;28;20023;-62
2022/10/29 04:43:15;;;;;;;10.65;2.55;;;12.90;75.30;;;;;;5003399;28;20026;-63
2022/10/29 04:45:41;;;;;;;6.03;3.10;;;12.90;75.30;;;;;;5002991;28;20039;-62
2022/10/29 04:48:07;;;;;;;13.77;3.58;;;12.90;76.00;;;;;;5003172;28;20041;-62
2022/10/29 04:50:35;;;;;;;11.20;3.03;;;12.90;75.40;;;;;;5001623;28;20385;-62
2022/10/29 04:53:03;;;;;;;8.43;2.97;;;13.00;75.50;;;;;;5013685;28;20025;-62
2022/10/29 04:55:28;;;;;;;5.90;2.88;;;13.00;75.50;;;;;;5006242;28;20043;-61
2022/10/29 04:57:54;;;;;;;8.25;2.97;;;13.00;75.50;;;;;;4997861;28;20026;-62
2022/10/29 05:00:21;;;;;;;9.25;3.60;;;13.00;75.40;;;;;;5001059;28;20031;-62
2022/10/29 05:02:50;;;;;;;6.40;3.33;;;13.00;75.20;;;;;;5006693;28;20461;-62
2022/10/29 05:05:18;;;;;;;11.90;3.28;;;13.00;75.30;;;;;;4997013;28;20053;-62
2022/10/29 05:07:43;;;;;;;9.73;3.20;;;13.00;75.50;;;;;;5000111;28;20026;-63
2022/10/29 05:10:10;;;;;;;10.45;2.97;;;13.00;75.50;;;;;;5002248;28;20036;-62
2022/10/29 05:12:35;;;;;;;9.25;3.03;;;13.00;75.60;;;;;;5002528;28;20045;-63
2022/10/29 05:15:01;;;;;;;12.10;3.60;;;13.00;75.70;;;;;;5002774;28;20018;-63
2022/10/29 05:17:27;;;;;;;12.32;4.32;;;13.00;75.80;;;;;;5014529;28;20044;-62
2022/10/29 05:19:52;;;;;;;9.50;4.32;;;13.00;75.80;;;;;;5003418;28;20019;-62
2022/10/29 05:22:18;;;;;;;5.93;3.45;;;13.00;75.80;;;;;;5004501;28;20022;-61
2022/10/29 05:24:44;;;;;;;7.57;3.53;;;13.00;75.80;;;;;;5005391;28;20053;-62
2022/10/29 05:27:09;;;;;;;16.20;3.35;;;13.00;75.80;;;;;;5001117;28;20026;-62
2022/10/29 05:29:35;;;;;;;6.18;3.70;;;13.10;75.90;;;;;;5002071;28;20380;-62
2022/10/29 05:32:01;;;;;;;11.43;4.05;;;13.10;75.90;;;;;;5002612;28;20034;-62
2022/10/29 05:34:26;;;;;;;9.02;3.83;;;13.10;75.90;;;;;;5000216;28;20033;-62
2022/10/29 05:36:52;;;;;;;13.50;4.68;;;13.10;75.90;;;;;;5001864;28;20038;-62
2022/10/29 05:39:18;;;;;;;8.35;3.45;;;13.10;75.80;;;;;;5000162;28;20035;-61
2022/10/29 05:41:45;;;;;;;10.57;3.47;;;13.10;75.80;;;;;;5002380;28;20042;-63
2022/10/29 05:44:11;;;;;;;7.50;3.63;;;13.10;75.70;;;;;;5004011;28;20345;-62
2022/10/29 05:46:36;;;;;;;11.10;3.38;;;13.20;75.70;;;;;;5014237;28;20052;-63
2022/10/29 05:49:03;;;;;;;6.13;3.50;;;13.20;75.80;;;;;;5010819;28;20030;-62
2022/10/29 05:51:28;;;;;;;9.35;3.42;;;13.20;75.70;;;;;;5007558;28;20022;-62
2022/10/29 05:53:54;;;;;;;12.80;3.50;;;13.20;75.70;;;;;;5012559;28;20432;-62
2022/10/29 05:56:20;;;;;;;6.15;3.45;;;13.20;75.70;;;;;;5012884;28;20061;-62
2022/10/29 05:58:49;;;;;;;9.05;3.40;;;13.20;75.70;;;;;;5009463;28;20022;-62
2022/10/29 06:01:15;;;;;;;6.63;3.25;;;13.20;75.70;;;;;;5009272;28;20057;-61
2022/10/29 06:03:41;;;;;;;12.57;3.85;;;13.20;75.60;;;;;;5010398;28;20079;-62
2022/10/29 06:06:07;;;;;;;5.75;3.55;;;13.20;75.70;;;;;;5006289;28;20042;-62
2022/10/29 06:08:33;;;;;;;7.68;3.28;;;13.20;75.70;;;;;;5012744;28;20030;-61
2022/10/29 06:11:02;;;;;;;8.23;3.70;;;13.20;75.70;;;;;;5016577;28;20018;-62
2022/10/29 06:13:28;;;;;;;8.90;3.50;;;13.20;75.90;;;;;;5013021;28;20065;-62
2022/10/29 06:15:59;;;;;;;9.43;3.20;;;13.20;75.70;;;;;;5010121;28;20023;-63
2022/10/29 06:18:26;;;;;;;8.23;3.22;;;13.20;75.80;;;;;;5021194;28;20005;-62
2022/10/29 06:20:52;;;;;;;7.70;3.58;;;13.30;75.80;;;;;;5008752;28;20037;-63
2022/10/29 06:23:18;;;;;;;10.60;3.40;;;13.30;75.80;;;;;;5017101;28;20030;-62
2022/10/29 06:25:43;;;;;;;8.25;3.47;;;13.30;75.90;;;;;;5006678;28;20034;-62
2022/10/29 06:28:13;;;;;;;7.07;3.05;;;13.30;76.00;;;;;;4992998;28;20018;-63
2022/10/29 06:30:40;;;;;;;11.10;3.65;;;13.30;75.90;;;;;;5010715;28;20101;-63
2022/10/29 06:33:06;;;;;;;12.40;3.30;;;13.30;75.90;;;;;;5001120;28;20058;-63
2022/10/29 06:35:32;;;;;;;7.60;3.25;;;13.30;76.00;;;;;;5000042;28;20042;-63
2022/10/29 06:37:58;;;;;;;10.85;3.42;;;13.30;76.00;;;;;;5004940;28;20373;-64
2022/10/29 06:40:24;;;;;;;8.82;3.10;;;13.40;76.00;;;;;;5007880;28;20025;-63
2022/10/29 06:42:58;;;;;;;13.70;3.80;;;13.40;75.90;;;;;;5009736;28;20105;-62
2022/10/29 06:45:24;;;;;;;10.48;3.80;;;13.40;76.10;;;;;;4999791;28;20121;-63
2022/10/29 06:47:49;;;;;;;7.60;3.45;;;13.50;76.00;;;;;;5002204;28;20061;-62
2022/10/29 06:50:15;;;;;;;6.03;3.40;;;13.50;76.00;;;;;;5007913;28;20030;-63
2022/10/29 06:52:41;;;;;;;9.02;3.75;;;13.50;76.00;;;;;;4997638;28;20105;-65
2022/10/29 06:55:07;;;;;;;5.22;3.17;;;13.50;75.90;;;;;;4999418;28;20074;-62
2022/10/29 06:57:35;;;;;;;7.05;3.60;;;13.50;75.80;;;;;;4996595;28;20476;-64
2022/10/29 07:00:00;;;;;;;6.18;3.28;;;13.60;75.80;;;;;;5002169;28;20094;-62
2022/10/29 07:02:26;;;;;;;7.18;3.15;;;13.60;75.70;;;;;;5000986;28;20030;-63
2022/10/29 07:04:52;;;;;;;9.35;3.35;;;13.60;75.60;;;;;;5003564;28;20089;-63
2022/10/29 07:07:17;;;;;;;11.95;3.67;;;13.60;75.50;;;;;;5008800;28;20030;-63
2022/10/29 07:09:43;;;;;;;11.18;4.18;;;13.70;76.20;;;;;;5005030;28;20027;-63
2022/10/29 07:12:09;;;;;;;9.48;4.35;;;13.70;75.50;;;;;;5004534;28;20034;-63
2022/10/29 07:14:35;;;;;;;12.80;5.85;;;13.70;75.50;;;;;;5003724;28;20034;-62
2022/10/29 07:17:00;;;;;;;8.27;4.90;;;13.70;75.50;;;;;;5005410;28;20027;-64
2022/10/29 07:19:26;;;;;;;7.97;4.43;;;13.70;75.60;;;;;;5007618;28;20026;-62
2022/10/29 07:21:52;;;;;;;12.15;4.50;;;13.70;75.60;;;;;;5008529;28;20034;-63
2022/10/29 07:24:17;;;;;;;11.80;4.30;;;13.70;75.70;;;;;;5012963;28;20022;-62
2022/10/29 07:26:43;;;;;;;10.02;4.07;;;13.80;75.80;;;;;;5004235;28;20043;-64
2022/10/29 07:29:09;;;;;;;8.77;4.30;;;13.80;76.00;;;;;;5004581;28;20110;-63
2022/10/29 07:31:35;;;;;;;8.20;3.53;;;13.90;76.20;;;;;;5008941;28;20066;-62
2022/10/29 07:34:00;;;;;;;6.65;3.72;;;13.90;76.10;;;;;;5001702;28;20053;-63
2022/10/29 07:36:28;;;;;;;7.05;3.70;;;14.00;76.20;;;;;;5007595;28;20037;-62
2022/10/29 07:38:54;;;;;;;10.00;3.85;;;14.10;76.20;;;;;;5003471;28;20022;-63
2022/10/29 07:41:20;;;;;;;7.40;3.60;;;14.20;76.10;;;;;;5004076;28;20026;-63
2022/10/29 07:43:45;;;;;;;8.73;4.15;;;14.30;76.00;;;;;;5006579;28;20038;-63
2022/10/29 07:46:11;;;;;;;11.77;4.22;;;14.40;75.90;;;;;;5009045;28;20103;-63
2022/10/29 07:48:37;;;;;;;11.95;3.63;;;14.50;75.80;;;;;;5000446;28;20090;-62
2022/10/29 07:51:03;;;;;;;7.88;3.50;;;14.50;75.80;;;;;;5000085;28;20019;-63
2022/10/29 07:53:30;;;;;;;8.00;3.63;;;14.70;75.70;;;;;;5002471;28;20058;-62
2022/10/29 07:55:56;;;;;;;6.60;3.92;;;14.70;75.50;;;;;;5003862;28;20386;-63
2022/10/29 07:58:23;;;;;;;9.60;4.22;;;14.80;75.40;;;;;;5003993;28;22147;-63
2022/10/29 08:00:49;;;;;;;8.95;4.28;;;14.90;75.30;;;;;;5000542;28;20050;-63
2022/10/29 08:03:14;;;;;;;12.88;4.60;;;14.90;75.20;;;;;;4998232;28;20037;-62
2022/10/29 08:05:41;;;;;;;10.65;4.28;;;15.00;75.20;;;;;;5006119;28;20031;-63
2022/10/29 08:08:06;;;;;;;11.32;4.25;;;15.00;74.90;;;;;;4996302;28;20064;-62
2022/10/29 08:10:33;;;;;;;10.05;4.30;;;15.10;74.70;;;;;;5005606;28;20034;-63
2022/10/29 08:13:02;;;;;;;12.25;4.10;;;15.10;74.50;;;;;;5003946;28;20049;-63
2022/10/29 08:15:30;;;;;;;10.80;5.13;;;15.20;74.50;;;;;;5005976;28;20056;-62
2022/10/29 08:17:56;;;;;;;11.32;5.22;;;15.20;74.60;;;;;;4995967;28;20090;-62
2022/10/29 08:20:25;;;;;;;11.32;5.22;;;15.30;74.70;;;;;;5012418;28;20029;-63
2022/10/29 08:22:51;;;;;;;9.23;4.95;;;15.30;74.80;;;;;;5003135;28;20033;-62
2022/10/29 08:25:16;;;;;;;8.63;4.85;;;15.40;74.90;;;;;;5002176;28;20034;-63
2022/10/29 08:27:42;;;;;;;10.75;5.05;;;15.50;74.90;;;;;;5007555;28;20057;-62
2022/10/29 08:30:11;;;;;;;8.80;5.43;;;15.70;74.90;;;;;;5013085;28;20029;-62
2022/10/29 08:32:43;;;;;;;17.00;5.60;;;15.70;74.80;;;;;;5004056;28;20042;-62
2022/10/29 08:35:08;;;;;;;10.63;5.60;;;15.90;74.60;;;;;;4998649;28;20018;-61
2022/10/29 08:37:34;;;;;;;21.58;5.75;;;16.00;74.50;;;;;;5003949;28;20080;-62
2022/10/29 08:40:00;;;;;;;11.63;5.43;;;16.10;74.30;;;;;;5003180;28;20057;-62
2022/10/29 08:42:28;;;;;;;12.43;6.00;;;16.20;75.00;;;;;;5002280;28;20148;-62
2022/10/29 08:45:09;;;;;;;17.55;6.53;;;16.30;74.20;;;;;;5000201;28;20088;-63
2022/10/29 08:47:47;;;;;;;12.88;6.57;;;16.40;74.00;;;;;;5002059;28;20030;-62
2022/10/29 08:50:32;;;;;;;18.55;6.43;;;16.60;74.10;;;;;;5004989;28;20053;-62
2022/10/29 08:53:00;;;;;;;16.02;6.70;;;16.70;73.70;;;;;;5010303;28;20034;-63
2022/10/29 08:55:34;;;;;;;9.57;5.85;;;16.80;73.70;;;;;;5003042;28;20091;-63
2022/10/29 08:58:22;;;;;;;14.00;6.55;;;16.90;73.20;;;;;;5000053;28;20026;-62
2022/10/29 09:00:51;;;;;;;11.02;6.22;;;17.00;73.10;;;;;;5011005;28;20038;-63
2022/10/29 09:03:17;;;;;;;14.40;6.07;;;17.10;73.20;;;;;;5007849;28;20108;-62
2022/10/29 09:06:07;;;;;;;24.02;6.43;;;17.30;73.10;;;;;;5003579;28;20038;-62
2022/10/29 09:08:51;;;;;;;8.75;5.50;;;17.40;72.60;;;;;;5003551;28;20022;-63
2022/10/29 09:11:22;;;;;;;15.27;5.60;;;17.50;72.50;;;;;;5015506;28;20369;-63
2022/10/29 09:14:15;;;;;;;16.17;6.07;;;17.60;72.20;;;;;;5006142;28;20022;-63
2022/10/29 09:16:56;;;;;;;9.48;5.63;;;17.70;71.90;;;;;;5006587;28;20038;-63
2022/10/29 09:19:53;;;;;;;8.35;5.55;;;17.90;71.70;;;;;;5000226;28;20046;-62
2022/10/29 09:22:22;;;;;;;12.88;4.60;;;18.00;71.30;;;;;;5007997;28;20037;-62
2022/10/29 09:25:06;;;;;;;11.07;5.30;;;18.20;71.70;;;;;;5004079;28;20173;-63
2022/10/29 09:27:52;;;;;;;15.20;5.35;;;18.30;71.20;;;;;;5010372;28;20034;-63
2022/10/29 09:30:19;;;;;;;10.18;5.03;;;18.50;70.80;;;;;;5002998;28;20041;-63
2022/10/29 09:32:51;;;;;;;18.23;5.28;;;18.60;71.20;;;;;;5003351;28;20120;-62
2022/10/29 09:35:20;;;;;;;8.10;4.65;;;18.80;71.00;;;;;;5001527;28;20034;-62
2022/10/29 09:37:54;;;;;;;13.43;5.20;;;18.90;70.70;;;;;;4997179;28;20528;-63
2022/10/29 09:40:38;;;;;;;16.95;5.18;;;19.00;70.10;;;;;;5005041;28;20058;-62
2022/10/29 09:43:41;;;;;;;11.15;5.10;;;19.10;69.40;;;;;;5004371;28;20065;-62
2022/10/29 09:46:49;;;;;;;9.82;4.45;;;19.20;70.00;;;;;;4997451;28;20671;-63
2022/10/29 09:49:21;;;;;;;10.32;5.15;;;19.40;69.20;;;;;;5003480;28;20026;-62
2022/10/29 09:52:12;;;;;;;13.25;5.22;;;19.50;69.30;;;;;;5008091;28;20030;-64
2022/10/29 09:54:38;;;;;;;14.05;6.20;;;19.60;68.90;;;;;;5003464;28;20049;-63
2022/10/29 09:57:04;;;;;;;12.32;5.53;;;19.60;69.30;;;;;;4999889;28;20038;-63
2022/10/29 09:59:51;;;;;;;13.90;5.80;;;19.70;69.10;;;;;;5001293;28;20030;-62
2022/10/29 10:02:33;;;;;;;10.57;4.70;;;19.80;68.50;;;;;;4995954;28;20022;-63
2022/10/29 10:05:13;;;;;;;17.27;4.97;;;19.80;68.30;;;;;;5000134;28;20041;-62
2022/10/29 10:07:40;;;;;;;11.52;5.50;;;19.90;68.00;;;;;;4999459;28;20444;-63
2022/10/29 10:10:18;;;;;;;12.27;6.13;;;20.00;68.50;;;;;;4997994;28;20090;-63
2022/10/29 10:12:46;;;;;;;10.20;4.68;;;20.10;68.40;;;;;;4992768;28;20144;-62
2022/10/29 10:15:15;;;;;;;11.27;4.90;;;20.20;68.30;;;;;;5003774;28;20026;-62
2022/10/29 10:18:04;;;;;;;11.23;4.85;;;20.30;68.20;;;;;;5002836;28;20030;-63
2022/10/29 10:20:38;;;;;;;13.50;5.47;;;20.40;67.30;;;;;;4996952;28;20030;-63
2022/10/29 10:23:52;;;;;;;12.07;6.03;;;20.50;67.60;;;;;;5008390;28;20176;-62
2022/10/29 10:26:28;;;;;;;14.52;5.15;;;20.60;67.10;;;;;;4994795;28;20069;-63
2022/10/29 10:29:15;;;;;;;7.57;4.60;;;20.70;67.40;;;;;;4999555;28;20036;-63
2022/10/29 10:31:48;;;;;;;21.05;4.85;;;20.70;67.00;;;;;;5006307;28;20026;-64
2022/10/29 10:34:31;;;;;;;14.13;5.47;;;20.80;67.50;;;;;;5000886;28;20026;-63
2022/10/29 10:37:03;;;;;;;13.38;4.70;;;20.90;67.00;;;;;;5000534;28;20026;-63
2022/10/29 10:39:33;;;;;;;8.95;4.95;;;21.10;67.00;;;;;;5009252;28;20032;-63
2022/10/29 10:42:02;;;;;;;15.88;5.13;;;21.10;67.10;;;;;;5007238;28;20034;-63
2022/10/29 10:44:28;;;;;;;9.80;4.57;;;21.20;66.90;;;;;;5002834;28;20038;-63
2022/10/29 10:46:56;;;;;;;13.85;4.93;;;21.30;66.60;;;;;;5002530;28;20113;-62
2022/10/29 10:49:36;;;;;;;13.27;4.75;;;21.40;66.50;;;;;;5004592;28;20023;-63
2022/10/29 10:52:15;;;;;;;15.30;5.35;;;21.50;65.50;;;;;;5002559;28;20022;-62
2022/10/29 10:54:54;;;;;;;11.18;4.85;;;21.70;66.10;;;;;;5001648;28;20517;-62
2022/10/29 10:57:24;;;;;;;12.43;4.65;;;21.80;65.90;;;;;;5005984;28;20130;-62
2022/10/29 11:00:18;;;;;;;10.48;4.80;;;21.90;65.60;;;;;;5013382;28;20037;-63
2022/10/29 11:02:53;;;;;;;8.85;4.30;;;22.10;65.50;;;;;;5003860;28;20030;-62
2022/10/29 11:05:21;;;;;;;12.80;5.03;;;22.20;65.70;;;;;;5003494;28;20045;-62
2022/10/29 11:08:00;;;;;;;12.45;5.38;;;22.30;65.30;;;;;;5005881;28;20030;-63
2022/10/29 11:10:52;;;;;;;16.65;5.05;;;22.40;64.40;;;;;;5008595;28;20030;-62
2022/10/29 11:13:22;;;;;;;11.40;5.38;;;22.60;64.20;;;;;;5006542;28;20057;-63
2022/10/29 11:15:50;;;;;;;14.02;4.78;;;22.60;63.70;;;;;;5001193;28;20033;-63
2022/10/29 11:18:38;;;;;;;9.27;4.85;;;22.70;63.60;;;;;;5003823;28;20504;-62
2022/10/29 11:21:25;;;;;;;10.38;4.53;;;22.70;62.80;;;;;;5002917;28;20084;-64
2022/10/29 11:24:02;;;;;;;13.95;4.82;;;22.80;63.10;;;;;;5004441;28;20108;-63
2022/10/29 11:26:50;;;;;;;12.13;4.57;;;22.90;63.30;;;;;;4999219;28;20045;-63
2022/10/29 11:29:34;;;;;;;12.00;4.28;;;23.00;63.30;;;;;;5001458;28;20026;-63
2022/10/29 11:32:28;;;;;;;8.60;4.20;;;23.20;62.30;;;;;;5004616;28;20030;-62
2022/10/29 11:35:13;;;;;;;18.73;6.40;;;23.30;62.80;;;;;;5007273;28;20049;-62
2022/10/29 11:37:47;;;;;;;14.98;5.22;;;23.40;63.10;;;;;;5002126;28;20030;-64
2022/10/29 11:40:40;;;;;;;9.60;4.63;;;23.50;62.10;;;;;;5001987;28;20026;-62
2022/10/29 11:43:10;;;;;;;11.82;4.88;;;23.60;61.60;;;;;;5005989;28;20019;-63
2022/10/29 11:46:07;;;;;;;14.13;5.00;;;23.70;61.50;;;;;;5010312;28;20049;-63
2022/10/29 11:48:39;;;;;;;14.75;4.80;;;23.80;61.00;;;;;;5007191;28;20046;-63
2022/10/29 11:51:17;;;;;;;11.77;4.68;;;23.80;61.40;;;;;;5002273;28;20034;-62
2022/10/29 11:53:58;;;;;;;9.57;4.55;;;23.90;60.10;;;;;;5006102;28;20046;-63
2022/10/29 11:56:47;;;;;;;13.73;3.85;;;24.00;59.70;;;;;;5003943;28;20114;-62
2022/10/29 11:59:32;;;;;;;13.23;4.88;;;24.10;59.40;;;;;;5000752;28;20030;-63
2022/10/29 12:02:14;;;;;;;17.25;5.25;;;24.10;59.60;;;;;;5010976;28;20022;-63
2022/10/29 12:05:02;;;;;;;12.73;4.63;;;24.20;59.90;;;;;;5001802;28;20041;-63
2022/10/29 12:07:38;;;;;;;14.23;4.32;;;24.30;59.10;;;;;;5003972;28;20038;-64
2022/10/29 12:10:20;;;;;;;18.77;4.70;;;24.30;59.20;;;;;;5005680;28;20031;-63
2022/10/29 12:13:07;;;;;;;9.48;4.05;;;24.40;58.70;;;;;;5001926;28;20031;-63
2022/10/29 12:15:51;;;;;;;10.25;4.35;;;24.50;58.90;;;;;;5010663;28;20106;-63
2022/10/29 12:18:41;;;;;;;13.95;4.50;;;24.50;58.20;;;;;;4997814;28;20382;-64
2022/10/29 12:21:29;;;;;;;12.13;4.30;;;24.60;58.40;;;;;;4997997;28;20035;-63
2022/10/29 12:24:35;;;;;;;13.73;4.85;;;24.60;58.20;;;;;;5003278;28;20109;-63
2022/10/29 12:27:13;;;;;;;10.13;4.15;;;24.70;58.00;;;;;;4950279;28;20182;-63
2022/10/29 12:29:51;;;;;;;10.10;4.60;;;24.70;58.70;;;;;;4961926;28;20059;-63
2022/10/29 12:32:35;;;;;;;10.48;4.05;;;24.80;58.60;;;;;;4970744;28;20090;-63
2022/10/29 12:35:05;;;;;;;;;;;24.90;57.70;;;;;;4958513;28;20028;-63
2022/10/29 12:38:00;;;;;;;16.90;4.53;;;25.00;59.20;;;;;;4961519;28;19910;-64
2022/10/29 12:40:32;;;;;;;16.05;4.78;;;25.00;58.10;;;;;;4966289;28;20050;-64
2022/10/29 12:43:05;;;;;;;22.00;4.20;;;25.10;58.10;;;;;;4961894;28;20167;-63
2022/10/29 12:45:51;;;;;;;12.35;4.22;;;25.10;58.10;;;;;;4962998;28;20111;-63
2022/10/29 12:48:36;;;;;;;14.48;4.75;;;25.20;57.80;;;;;;4961200;28;20047;-63
2022/10/29 12:51:33;;;;;;;16.00;4.32;;;25.30;57.60;;;;;;4962092;28;20047;-64
2022/10/29 12:54:31;;;;;;;11.68;4.53;;;25.40;57.30;;;;;;4963780;28;20256;-63
2022/10/29 12:57:12;;;;;;;10.45;4.00;;;25.40;56.90;;;;;;4963239;28;20100;-63
2022/10/29 12:59:39;;;;;;;8.02;3.75;;;25.50;56.50;;;;;;4969317;28;20035;-63
2022/10/29 13:02:36;;;;;;;7.28;3.67;;;25.60;57.60;;;;;;4960640;28;20043;-63
2022/10/29 13:05:08;;;;;;;6.70;3.38;;;25.70;57.00;;;;;;5007165;28;20034;-64
2022/10/29 13:07:46;;;;;;;8.70;3.45;;;25.80;57.00;;;;;;5004691;28;20034;-63